createdAt,value
2022-10-31T00:00:15.566Z,0.00
2022-10-31T00:01:15.491Z,0.00
2022-10-31T00:02:15.519Z,0.00
2022-10-31T00:03:15.446Z,0.00
2022-10-31T00:04:15.412Z,0.00
2022-10-31T00:05:15.412Z,0.00
2022-10-31T00:06:15.414Z,0.00
2022-10-31T00:07:15.428Z,0.00
2022-10-31T00:08:15.400Z,0.00
2022-10-31T00:09:15.363Z,0.00
2022-10-31T00:10:15.399Z,0.00
2022-10-31T00:11:15.361Z,0.00
2022-10-31T00:12:15.363Z,0.00
2022-10-31T00:13:15.452Z,0.00
2022-10-31T00:14:15.348Z,0.00
2022-10-31T00:15:15.309Z,0.00
2022-10-31T00:16:15.348Z,0.00
2022-10-31T00:17:15.287Z,0.00
2022-10-31T00:18:15.296Z,0.00
2022-10-31T00:19:15.263Z,0.00
2022-10-31T00:20:15.267Z,0.00
2022-10-31T00:21:15.265Z,0.00
2022-10-31T00:22:15.240Z,0.00
2022-10-31T00:23:15.220Z,0.00
2022-10-31T00:24:15.215Z,0.00
2022-10-31T00:25:15.207Z,0.00
2022-10-31T00:26:15.289Z,0.00
2022-10-31T00:27:15.211Z,0.00
2022-10-31T00:28:15.248Z,0.00
2022-10-31T00:29:15.160Z,0.00
2022-10-31T00:30:15.155Z,0.00
2022-10-31T00:31:15.149Z,0.00
2022-10-31T00:32:15.189Z,0.00
2022-10-31T00:33:15.124Z,0.00
2022-10-31T00:34:15.136Z,0.00
2022-10-31T00:35:15.128Z,0.00
2022-10-31T00:36:15.100Z,0.00
2022-10-31T00:37:15.097Z,0.00
2022-10-31T00:38:15.072Z,0.00
2022-10-31T00:39:15.049Z,0.00
2022-10-31T00:40:15.056Z,0.00
2022-10-31T00:41:15.031Z,0.00
2022-10-31T00:42:15.057Z,0.00
2022-10-31T00:43:15.014Z,0.00
2022-10-31T00:44:15.013Z,0.00
2022-10-31T00:45:14.995Z,0.00
2022-10-31T00:46:14.982Z,0.00
2022-10-31T00:47:14.969Z,0.00
2022-10-31T00:48:14.989Z,0.00
2022-10-31T00:49:14.941Z,0.00
2022-10-31T00:50:14.947Z,0.00
2022-10-31T00:51:14.926Z,0.00
2022-10-31T00:52:14.918Z,0.00
2022-10-31T00:53:14.942Z,0.00
2022-10-31T00:54:15.026Z,0.00
2022-10-31T00:55:14.873Z,0.00
2022-10-31T00:56:14.877Z,0.00
2022-10-31T00:57:14.866Z,0.00
2022-10-31T00:59:14.823Z,0.00
2022-10-31T01:00:14.852Z,0.00
2022-10-31T01:01:14.917Z,0.00
2022-10-31T01:02:14.991Z,0.00
2022-10-31T01:03:14.818Z,0.00
2022-10-31T01:04:14.813Z,0.00
2022-10-31T01:05:14.782Z,0.00
2022-10-31T01:06:14.782Z,0.00
2022-10-31T01:07:14.798Z,0.00
2022-10-31T01:08:14.760Z,0.00
2022-10-31T01:09:14.745Z,0.00
2022-10-31T01:10:14.735Z,0.00
2022-10-31T01:11:14.701Z,0.00
2022-10-31T01:12:14.693Z,0.00
2022-10-31T01:13:14.714Z,0.00
2022-10-31T01:14:14.684Z,0.00
2022-10-31T01:15:14.675Z,0.00
2022-10-31T01:16:14.656Z,0.00
2022-10-31T01:17:14.643Z,0.00
2022-10-31T01:18:14.650Z,0.00
2022-10-31T01:19:14.622Z,0.00
2022-10-31T01:20:14.614Z,0.00
2022-10-31T01:21:14.608Z,0.00
2022-10-31T01:22:14.634Z,0.00
2022-10-31T01:23:14.571Z,0.00
2022-10-31T01:24:14.573Z,0.00
2022-10-31T01:25:14.783Z,0.00
2022-10-31T01:26:14.567Z,0.00
2022-10-31T01:27:14.519Z,0.00
2022-10-31T01:28:14.586Z,0.00
2022-10-31T01:29:14.523Z,0.00
2022-10-31T01:30:14.578Z,0.00
2022-10-31T01:31:14.508Z,0.00
2022-10-31T01:32:14.520Z,0.00
2022-10-31T01:33:14.462Z,0.00
2022-10-31T01:34:14.493Z,0.00
2022-10-31T01:35:14.451Z,0.00
2022-10-31T01:36:14.454Z,0.00
2022-10-31T01:37:14.428Z,0.00
2022-10-31T01:38:14.427Z,0.00
2022-10-31T01:39:14.498Z,0.00
2022-10-31T01:40:14.404Z,0.00
2022-10-31T01:41:14.402Z,0.00
2022-10-31T01:42:14.402Z,0.00
2022-10-31T01:43:14.449Z,0.00
2022-10-31T01:44:14.400Z,0.00
2022-10-31T01:45:14.349Z,0.00
2022-10-31T01:46:14.387Z,0.00
2022-10-31T01:47:14.363Z,0.00
2022-10-31T01:48:14.313Z,0.00
2022-10-31T01:49:14.297Z,0.00
2022-10-31T01:50:14.308Z,0.00
2022-10-31T01:51:14.272Z,0.00
2022-10-31T01:52:14.294Z,0.00
2022-10-31T01:53:14.257Z,0.00
2022-10-31T01:54:15.402Z,0.00
2022-10-31T01:55:14.228Z,0.00
2022-10-31T01:56:14.227Z,0.00
2022-10-31T01:57:14.243Z,0.00
2022-10-31T01:58:14.317Z,0.00
2022-10-31T01:59:14.222Z,0.00
2022-10-31T02:00:14.167Z,0.00
2022-10-31T02:01:14.290Z,0.00
2022-10-31T02:02:14.418Z,0.00
2022-10-31T02:03:14.159Z,0.00
2022-10-31T02:04:14.140Z,0.00
2022-10-31T02:05:14.137Z,0.00
2022-10-31T02:06:14.116Z,0.00
2022-10-31T02:07:14.098Z,0.00
2022-10-31T02:08:14.115Z,0.00
2022-10-31T02:09:14.089Z,0.00
2022-10-31T02:10:14.094Z,0.00
2022-10-31T02:11:14.047Z,0.00
2022-10-31T02:12:14.055Z,0.00
2022-10-31T02:13:14.239Z,0.00
2022-10-31T02:14:14.034Z,0.00
2022-10-31T02:15:14.029Z,0.00
2022-10-31T02:16:14.801Z,0.00
2022-10-31T02:17:13.987Z,0.00
2022-10-31T02:18:14.007Z,0.00
2022-10-31T02:19:13.965Z,0.00
2022-10-31T02:20:13.968Z,0.00
2022-10-31T02:21:13.958Z,0.00
2022-10-31T02:22:13.934Z,0.00
2022-10-31T02:23:14.493Z,0.00
2022-10-31T02:24:13.934Z,0.00
2022-10-31T02:25:13.914Z,0.00
2022-10-31T02:26:13.909Z,0.00
2022-10-31T02:27:13.877Z,0.00
2022-10-31T02:28:13.964Z,0.00
2022-10-31T02:29:13.864Z,0.00
2022-10-31T02:30:13.864Z,0.00
2022-10-31T02:31:13.837Z,0.00
2022-10-31T02:32:13.836Z,0.00
2022-10-31T02:33:13.817Z,0.00
2022-10-31T02:34:13.843Z,0.00
2022-10-31T02:35:17.515Z,0.00
2022-10-31T02:36:13.794Z,0.00
2022-10-31T02:37:13.777Z,0.00
2022-10-31T02:38:13.770Z,0.00
2022-10-31T02:39:13.780Z,0.00
2022-10-31T02:40:13.747Z,0.00
2022-10-31T02:41:13.729Z,0.00
2022-10-31T02:42:13.735Z,0.00
2022-10-31T02:44:13.917Z,0.00
2022-10-31T02:45:13.698Z,0.00
2022-10-31T02:46:13.685Z,0.00
2022-10-31T02:47:13.713Z,0.00
2022-10-31T02:48:13.671Z,0.00
2022-10-31T02:49:13.638Z,0.00
2022-10-31T02:50:13.661Z,0.00
2022-10-31T02:51:13.659Z,0.00
2022-10-31T02:52:13.634Z,0.00
2022-10-31T02:53:13.608Z,0.00
2022-10-31T02:54:13.610Z,0.00
2022-10-31T02:55:13.597Z,0.00
2022-10-31T02:56:13.579Z,0.00
2022-10-31T02:57:13.643Z,0.00
2022-10-31T02:58:13.604Z,0.00
2022-10-31T02:59:13.543Z,0.00
2022-10-31T03:00:13.554Z,0.00
2022-10-31T03:01:13.617Z,0.00
2022-10-31T03:02:13.726Z,0.00
2022-10-31T03:03:13.499Z,0.00
2022-10-31T03:04:13.478Z,0.00
2022-10-31T03:05:13.506Z,0.00
2022-10-31T03:06:13.491Z,0.00
2022-10-31T03:07:13.449Z,0.00
2022-10-31T03:08:13.461Z,0.00
2022-10-31T03:09:13.472Z,0.00
2022-10-31T03:10:13.441Z,0.00
2022-10-31T03:11:13.425Z,0.00
2022-10-31T03:12:13.417Z,0.00
2022-10-31T03:13:13.547Z,0.00
2022-10-31T03:14:13.409Z,0.00
2022-10-31T03:15:13.389Z,0.00
2022-10-31T03:16:13.401Z,0.00
2022-10-31T03:17:13.343Z,0.00
2022-10-31T03:18:13.357Z,0.00
2022-10-31T03:19:13.323Z,0.00
2022-10-31T03:20:13.387Z,0.00
2022-10-31T03:21:13.305Z,0.00
2022-10-31T03:22:13.297Z,0.00
2022-10-31T03:23:13.281Z,0.00
2022-10-31T03:24:13.296Z,0.00
2022-10-31T03:25:13.272Z,0.00
2022-10-31T03:26:13.948Z,0.00
2022-10-31T03:27:13.280Z,0.00
2022-10-31T03:28:13.354Z,0.00
2022-10-31T03:29:13.234Z,0.00
2022-10-31T03:30:13.245Z,0.00
2022-10-31T03:31:13.194Z,0.00
2022-10-31T03:32:13.202Z,0.00
2022-10-31T03:33:13.173Z,0.00
2022-10-31T03:34:13.186Z,0.00
2022-10-31T03:35:13.153Z,0.00
2022-10-31T03:36:13.180Z,0.00
2022-10-31T03:37:13.130Z,0.00
2022-10-31T03:38:13.140Z,0.00
2022-10-31T03:39:13.114Z,0.00
2022-10-31T03:40:13.111Z,0.00
2022-10-31T03:41:13.127Z,0.00
2022-10-31T03:42:13.094Z,0.00
2022-10-31T03:43:13.097Z,0.00
2022-10-31T03:44:13.066Z,0.00
2022-10-31T03:45:13.066Z,0.00
2022-10-31T03:46:13.121Z,0.00
2022-10-31T03:47:13.039Z,0.00
2022-10-31T03:48:13.086Z,0.00
2022-10-31T03:49:13.010Z,0.00
2022-10-31T03:50:13.014Z,0.00
2022-10-31T03:51:13.003Z,0.00
2022-10-31T03:52:12.969Z,0.00
2022-10-31T03:53:12.999Z,0.00
2022-10-31T03:54:12.961Z,0.00
2022-10-31T03:55:12.943Z,0.00
2022-10-31T03:56:13.192Z,0.00
2022-10-31T03:57:12.934Z,0.00
2022-10-31T03:58:13.001Z,0.00
2022-10-31T03:59:12.892Z,0.00
2022-10-31T04:00:12.903Z,0.00
2022-10-31T04:01:13.020Z,0.00
2022-10-31T04:02:12.987Z,0.00
2022-10-31T04:03:12.883Z,0.00
2022-10-31T04:04:12.843Z,0.00
2022-10-31T04:05:12.861Z,0.00
2022-10-31T04:06:12.822Z,0.00
2022-10-31T04:07:12.835Z,0.00
2022-10-31T04:08:12.816Z,0.00
2022-10-31T04:09:12.820Z,0.00
2022-10-31T04:10:12.789Z,0.00
2022-10-31T04:11:12.786Z,0.00
2022-10-31T04:12:12.774Z,0.00
2022-10-31T04:13:12.835Z,0.00
2022-10-31T04:14:12.733Z,0.00
2022-10-31T04:15:12.743Z,0.00
2022-10-31T04:16:16.088Z,0.00
2022-10-31T04:17:12.739Z,0.00
2022-10-31T04:18:12.700Z,0.00
2022-10-31T04:19:12.742Z,0.00
2022-10-31T04:20:12.671Z,0.00
2022-10-31T04:21:12.680Z,0.00
2022-10-31T04:22:12.652Z,0.00
2022-10-31T04:23:14.720Z,0.00
2022-10-31T04:24:12.657Z,0.00
2022-10-31T04:25:12.616Z,0.00
2022-10-31T04:26:12.613Z,0.00
2022-10-31T04:27:12.624Z,0.00
2022-10-31T04:28:12.644Z,0.00
2022-10-31T04:29:12.601Z,0.00
2022-10-31T04:30:12.570Z,0.00
2022-10-31T04:31:12.593Z,0.00
2022-10-31T04:32:12.572Z,0.00
2022-10-31T04:33:12.540Z,0.00
2022-10-31T04:34:12.554Z,0.00
2022-10-31T04:35:12.539Z,0.00
2022-10-31T04:36:12.540Z,0.00
2022-10-31T04:37:12.497Z,0.00
2022-10-31T04:38:12.472Z,0.00
2022-10-31T04:39:12.486Z,0.00
2022-10-31T04:40:12.479Z,0.00
2022-10-31T04:41:12.456Z,0.00
2022-10-31T04:42:12.522Z,0.00
2022-10-31T04:43:12.559Z,0.00
2022-10-31T04:44:12.489Z,0.00
2022-10-31T04:45:15.515Z,0.00
2022-10-31T04:46:12.418Z,0.00
2022-10-31T04:47:12.394Z,0.00
2022-10-31T04:48:12.382Z,0.00
2022-10-31T04:49:12.369Z,0.00
2022-10-31T04:50:12.390Z,0.00
2022-10-31T04:51:12.348Z,0.00
2022-10-31T04:52:12.329Z,0.00
2022-10-31T04:53:12.329Z,0.00
2022-10-31T04:54:12.314Z,0.00
2022-10-31T04:55:12.346Z,0.00
2022-10-31T04:56:12.337Z,0.00
2022-10-31T04:57:12.276Z,0.00
2022-10-31T04:58:12.358Z,0.00
2022-10-31T04:59:13.297Z,0.00
2022-10-31T05:00:12.250Z,0.00
2022-10-31T05:01:12.398Z,0.00
2022-10-31T05:02:12.376Z,0.00
2022-10-31T05:03:12.228Z,0.00
2022-10-31T05:04:12.214Z,0.00
2022-10-31T05:05:12.249Z,0.00
2022-10-31T05:06:12.195Z,0.00
2022-10-31T05:07:12.209Z,0.00
2022-10-31T05:08:12.175Z,0.00
2022-10-31T05:09:12.161Z,0.00
2022-10-31T05:10:12.138Z,0.00
2022-10-31T05:11:12.142Z,0.00
2022-10-31T05:12:12.157Z,0.00
2022-10-31T05:13:12.183Z,0.00
2022-10-31T05:14:12.103Z,0.00
2022-10-31T05:15:12.111Z,0.00
2022-10-31T05:16:12.087Z,0.00
2022-10-31T05:17:12.070Z,0.00
2022-10-31T05:18:12.086Z,0.00
2022-10-31T05:19:12.054Z,0.00
2022-10-31T05:20:13.146Z,0.00
2022-10-31T05:21:12.044Z,0.00
2022-10-31T05:22:12.009Z,0.00
2022-10-31T05:23:12.039Z,0.00
2022-10-31T05:24:12.022Z,0.00
2022-10-31T05:25:12.014Z,0.00
2022-10-31T05:26:11.979Z,0.00
2022-10-31T05:27:11.961Z,0.00
2022-10-31T05:28:11.949Z,0.00
2022-10-31T05:29:11.976Z,0.00
2022-10-31T05:30:11.927Z,0.00
2022-10-31T05:31:11.938Z,0.00
2022-10-31T05:32:11.918Z,0.00
2022-10-31T05:33:11.904Z,0.00
2022-10-31T05:34:11.899Z,0.00
2022-10-31T05:35:11.904Z,0.00
2022-10-31T05:36:11.859Z,0.00
2022-10-31T05:37:11.871Z,0.00
2022-10-31T05:38:11.891Z,0.00
2022-10-31T05:39:11.884Z,0.00
2022-10-31T05:40:11.854Z,0.00
2022-10-31T05:41:12.598Z,0.00
2022-10-31T05:42:11.799Z,0.00
2022-10-31T05:43:11.796Z,0.00
2022-10-31T05:44:11.810Z,0.00
2022-10-31T05:45:11.793Z,0.00
2022-10-31T05:46:11.759Z,0.00
2022-10-31T05:47:11.788Z,0.00
2022-10-31T05:48:11.773Z,0.00
2022-10-31T05:49:11.739Z,0.00
2022-10-31T05:50:11.740Z,0.00
2022-10-31T05:51:11.712Z,0.00
2022-10-31T05:52:11.647Z,1.00
2022-10-31T05:53:11.706Z,0.00
2022-10-31T05:54:15.819Z,0.00
2022-10-31T05:55:11.640Z,2.00
2022-10-31T05:56:11.612Z,1.00
2022-10-31T05:57:11.643Z,0.00
2022-10-31T05:58:11.637Z,0.00
2022-10-31T05:59:11.603Z,1.00
2022-10-31T06:00:11.576Z,1.00
2022-10-31T06:01:11.657Z,2.00
2022-10-31T06:02:11.619Z,3.00
2022-10-31T06:03:11.560Z,4.00
2022-10-31T06:04:11.525Z,3.00
2022-10-31T06:05:11.603Z,2.00
2022-10-31T06:06:11.542Z,4.00
2022-10-31T06:07:11.506Z,4.00
2022-10-31T06:08:11.474Z,7.00
2022-10-31T06:09:11.504Z,8.00
2022-10-31T06:10:11.476Z,9.00
2022-10-31T06:11:11.514Z,8.00
2022-10-31T06:12:11.455Z,8.00
2022-10-31T06:13:11.427Z,10.00
2022-10-31T06:14:11.432Z,13.00
2022-10-31T06:15:11.450Z,19.00
2022-10-31T06:16:11.418Z,21.00
2022-10-31T06:17:11.409Z,25.00
2022-10-31T06:18:11.386Z,33.00
2022-10-31T06:19:11.372Z,42.00
2022-10-31T06:20:11.345Z,49.00
2022-10-31T06:21:12.547Z,52.00
2022-10-31T06:22:11.333Z,56.00
2022-10-31T06:23:11.366Z,65.00
2022-10-31T06:24:11.302Z,80.00
2022-10-31T06:25:11.317Z,83.00
2022-10-31T06:26:11.296Z,88.00
2022-10-31T06:27:11.306Z,92.00
2022-10-31T06:28:11.259Z,101.00
2022-10-31T06:29:11.255Z,110.00
2022-10-31T06:30:11.221Z,115.00
2022-10-31T06:31:11.250Z,120.00
2022-10-31T06:32:11.260Z,125.00
2022-10-31T06:33:11.205Z,131.00
2022-10-31T06:34:11.407Z,141.00
2022-10-31T06:35:11.196Z,150.00
2022-10-31T06:36:11.161Z,161.00
2022-10-31T06:37:11.207Z,168.00
2022-10-31T06:38:11.190Z,180.00
2022-10-31T06:39:11.155Z,192.00
2022-10-31T06:40:11.127Z,206.00
2022-10-31T06:41:11.115Z,219.00
2022-10-31T06:42:11.133Z,229.00
2022-10-31T06:43:11.234Z,240.00
2022-10-31T06:44:11.110Z,252.00
2022-10-31T06:45:11.083Z,274.00
2022-10-31T06:46:11.084Z,296.00
2022-10-31T06:47:11.079Z,311.00
2022-10-31T06:48:17.115Z,327.00
2022-10-31T06:49:11.058Z,339.00
2022-10-31T06:50:12.356Z,349.00
2022-10-31T06:51:11.013Z,366.00
2022-10-31T06:52:10.998Z,381.00
2022-10-31T06:54:10.982Z,404.00
2022-10-31T06:55:10.987Z,421.00
2022-10-31T06:56:10.964Z,431.00
2022-10-31T06:57:10.958Z,450.00
2022-10-31T06:58:11.247Z,473.00
2022-10-31T06:59:10.942Z,493.00
2022-10-31T07:00:10.918Z,507.00
2022-10-31T07:01:11.065Z,521.00
2022-10-31T07:02:11.101Z,541.00
2022-10-31T07:03:10.953Z,551.00
2022-10-31T07:04:10.887Z,578.00
2022-10-31T07:05:10.867Z,602.00
2022-10-31T07:06:10.869Z,611.00
2022-10-31T07:07:10.867Z,613.00
2022-10-31T07:08:13.613Z,637.00
2022-10-31T07:09:10.842Z,660.00
2022-10-31T07:11:10.824Z,717.00
2022-10-31T07:12:10.805Z,725.00
2022-10-31T07:13:10.793Z,742.00
2022-10-31T07:14:10.993Z,777.00
2022-10-31T07:15:10.803Z,784.00
2022-10-31T07:16:10.748Z,795.00
2022-10-31T07:17:10.756Z,785.00
2022-10-31T07:18:10.724Z,792.00
2022-10-31T07:19:10.732Z,801.00
2022-10-31T07:20:10.708Z,806.00
2022-10-31T07:21:10.708Z,817.00
2022-10-31T07:22:10.683Z,827.00
2022-10-31T07:23:10.687Z,833.00
2022-10-31T07:24:10.665Z,842.00
2022-10-31T07:25:10.695Z,855.00
2022-10-31T07:26:10.638Z,863.00
2022-10-31T07:27:10.660Z,880.00
2022-10-31T07:28:10.620Z,888.00
2022-10-31T07:29:10.615Z,901.00
2022-10-31T07:30:10.652Z,914.00
2022-10-31T07:31:10.589Z,933.00
2022-10-31T07:32:10.574Z,923.00
2022-10-31T07:33:10.561Z,949.00
2022-10-31T07:34:10.545Z,996.00
2022-10-31T07:35:10.559Z,1052.00
2022-10-31T07:36:10.553Z,1020.00
2022-10-31T07:37:10.554Z,1074.00
2022-10-31T07:38:10.514Z,1142.00
2022-10-31T07:39:10.510Z,1104.00
2022-10-31T07:40:12.055Z,1136.00
2022-10-31T07:41:11.772Z,1182.00
2022-10-31T07:42:10.463Z,1192.00
2022-10-31T07:43:13.968Z,1207.00
2022-10-31T07:44:10.442Z,1184.00
2022-10-31T07:45:10.446Z,1217.00
2022-10-31T07:46:10.451Z,1191.00
2022-10-31T07:47:10.434Z,1224.00
2022-10-31T07:48:10.401Z,1197.00
2022-10-31T07:49:10.408Z,1246.00
2022-10-31T07:50:10.395Z,1221.00
2022-10-31T07:51:10.376Z,1245.00
2022-10-31T07:52:10.381Z,1289.00
2022-10-31T07:53:10.395Z,1289.00
2022-10-31T07:54:10.352Z,1264.00
2022-10-31T07:55:10.366Z,1386.00
2022-10-31T07:56:10.367Z,1275.00
2022-10-31T07:57:10.315Z,1355.00
2022-10-31T07:58:10.312Z,1521.00
2022-10-31T07:59:10.306Z,1324.00
2022-10-31T08:00:14.730Z,1457.00
2022-10-31T08:01:10.405Z,1465.00
2022-10-31T08:02:10.266Z,1483.00
2022-10-31T08:03:10.279Z,1550.00
2022-10-31T08:04:10.310Z,1528.00
2022-10-31T08:05:10.256Z,1494.00
2022-10-31T08:06:10.210Z,1482.00
2022-10-31T08:07:11.004Z,1573.00
2022-10-31T08:08:10.187Z,1584.00
2022-10-31T08:09:10.246Z,1575.00
2022-10-31T08:10:10.344Z,1578.00
2022-10-31T08:11:10.197Z,1579.00
2022-10-31T08:12:10.150Z,1381.00
2022-10-31T08:13:10.151Z,1628.00
2022-10-31T08:14:10.139Z,1679.00
2022-10-31T08:15:10.124Z,1765.00
2022-10-31T08:16:10.597Z,1785.00
2022-10-31T08:17:10.161Z,1890.00
2022-10-31T08:18:10.077Z,1762.00
2022-10-31T08:19:10.162Z,1853.00
2022-10-31T08:20:12.960Z,1851.00
2022-10-31T08:21:10.066Z,1884.00
2022-10-31T08:22:10.058Z,1924.00
2022-10-31T08:23:10.078Z,1980.00
2022-10-31T08:24:10.030Z,1928.00
2022-10-31T08:25:10.038Z,1709.00
2022-10-31T08:26:09.996Z,1801.00
2022-10-31T08:27:10.006Z,1696.00
2022-10-31T08:28:10.048Z,1689.00
2022-10-31T08:29:09.953Z,1882.00
2022-10-31T08:30:09.962Z,1985.00
2022-10-31T08:31:09.940Z,2012.00
2022-10-31T08:32:09.931Z,2156.00
2022-10-31T08:33:09.938Z,1960.00
2022-10-31T08:34:09.940Z,2057.00
2022-10-31T08:35:10.137Z,2127.00
2022-10-31T08:36:09.894Z,2023.00
2022-10-31T08:37:09.895Z,2117.00
2022-10-31T08:38:09.890Z,1963.00
2022-10-31T08:39:09.891Z,2173.00
2022-10-31T08:40:11.471Z,2120.00
2022-10-31T08:41:09.845Z,2219.00
2022-10-31T08:42:10.525Z,2235.00
2022-10-31T08:43:09.817Z,2087.00
2022-10-31T08:44:09.862Z,2298.00
2022-10-31T08:45:09.813Z,2182.00
2022-10-31T08:46:09.797Z,2360.00
2022-10-31T08:47:09.766Z,2396.00
2022-10-31T08:48:09.776Z,2405.00
2022-10-31T08:49:09.757Z,2564.00
2022-10-31T08:50:11.628Z,2560.00
2022-10-31T08:51:09.738Z,2480.00
2022-10-31T08:52:14.310Z,2348.00
2022-10-31T08:53:09.732Z,2473.00
2022-10-31T08:54:09.701Z,2499.00
2022-10-31T08:55:09.672Z,2602.00
2022-10-31T08:56:09.741Z,2381.00
2022-10-31T08:57:09.671Z,3186.00
2022-10-31T08:58:09.665Z,2871.00
2022-10-31T08:59:09.646Z,2624.00
2022-10-31T09:00:09.658Z,2557.00
2022-10-31T09:01:09.737Z,2612.00
2022-10-31T09:02:09.830Z,2740.00
2022-10-31T09:03:09.616Z,2752.00
2022-10-31T09:04:09.589Z,2740.00
2022-10-31T09:05:09.618Z,2534.00
2022-10-31T09:06:09.720Z,2764.00
2022-10-31T09:07:24.814Z,2726.00
2022-10-31T09:08:15.710Z,3370.00
2022-10-31T09:09:09.547Z,3115.00
2022-10-31T09:10:09.530Z,3078.00
2022-10-31T09:11:09.732Z,3051.00
2022-10-31T09:12:09.493Z,3147.00
2022-10-31T09:13:09.486Z,2931.00
2022-10-31T09:14:09.488Z,3029.00
2022-10-31T09:15:09.478Z,3040.00
2022-10-31T09:16:09.471Z,3036.00
2022-10-31T09:17:09.457Z,3078.00
2022-10-31T09:18:09.438Z,3037.00
2022-10-31T09:19:11.507Z,2956.00
2022-10-31T09:20:09.452Z,2888.00
2022-10-31T09:21:09.403Z,3509.00
2022-10-31T09:22:09.433Z,3912.00
2022-10-31T09:23:09.383Z,3678.00
2022-10-31T09:24:09.376Z,3715.00
2022-10-31T09:25:09.379Z,2695.00
2022-10-31T09:26:09.389Z,3673.00
2022-10-31T09:27:09.346Z,3887.00
2022-10-31T09:28:09.351Z,4396.00
2022-10-31T09:29:09.315Z,2643.00
2022-10-31T09:30:09.342Z,3253.00
2022-10-31T09:31:09.293Z,5012.00
2022-10-31T09:32:09.307Z,3223.00
2022-10-31T09:33:31.801Z,2945.00
2022-10-31T09:34:09.270Z,3586.00
2022-10-31T09:35:09.335Z,2637.00
2022-10-31T09:36:09.238Z,3859.00
2022-10-31T09:37:09.246Z,3729.00
2022-10-31T09:38:09.218Z,3935.00
2022-10-31T09:39:09.208Z,5002.00
2022-10-31T09:40:09.206Z,4336.00
2022-10-31T09:41:10.748Z,6491.00
2022-10-31T09:42:09.174Z,6696.00
2022-10-31T09:43:10.817Z,4434.00
2022-10-31T09:44:09.159Z,5978.00
2022-10-31T09:45:09.164Z,5995.00
2022-10-31T09:46:09.184Z,5281.00
2022-10-31T09:47:09.120Z,4551.00
2022-10-31T09:48:09.129Z,3746.00
2022-10-31T09:49:09.130Z,4885.00
2022-10-31T09:50:09.095Z,5183.00
2022-10-31T09:51:09.485Z,4168.00
2022-10-31T09:53:09.070Z,3525.00
2022-10-31T09:54:09.065Z,3871.00
2022-10-31T09:55:09.045Z,3893.00
2022-10-31T09:56:09.097Z,4318.00
2022-10-31T09:57:09.028Z,4406.00
2022-10-31T09:58:09.010Z,4367.00
2022-10-31T09:59:10.239Z,4021.00
2022-10-31T10:00:08.997Z,3698.00
2022-10-31T10:01:09.189Z,3685.00
2022-10-31T10:02:09.102Z,3581.00
2022-10-31T10:03:08.949Z,3199.00
2022-10-31T10:04:08.937Z,4257.00
2022-10-31T10:05:08.932Z,3946.00
2022-10-31T10:06:08.937Z,3801.00
2022-10-31T10:07:08.959Z,3416.00
2022-10-31T10:08:08.924Z,3756.00
2022-10-31T10:09:08.948Z,4361.00
2022-10-31T10:10:09.064Z,1696.00
2022-10-31T10:11:09.721Z,7672.00
2022-10-31T10:12:08.865Z,8973.00
2022-10-31T10:13:12.186Z,7054.00
2022-10-31T10:14:08.838Z,7857.00
2022-10-31T10:15:08.960Z,6220.00
2022-10-31T10:16:08.821Z,3360.00
2022-10-31T10:17:08.834Z,8080.00
2022-10-31T10:18:08.773Z,9976.00
2022-10-31T10:19:08.800Z,8133.00
2022-10-31T10:20:08.761Z,7800.00
2022-10-31T10:21:08.759Z,9067.00
2022-10-31T10:22:08.749Z,7290.00
2022-10-31T10:23:08.760Z,5648.00
2022-10-31T10:24:08.739Z,6319.00
2022-10-31T10:25:08.715Z,6927.00
2022-10-31T10:26:11.195Z,7480.00
2022-10-31T10:27:08.703Z,5564.00
2022-10-31T10:28:08.674Z,5425.00
2022-10-31T10:29:08.717Z,5194.00
2022-10-31T10:30:08.652Z,4845.00
2022-10-31T10:31:08.673Z,3471.00
2022-10-31T10:32:08.682Z,2969.00
2022-10-31T10:33:08.645Z,2777.00
2022-10-31T10:34:08.650Z,2676.00
2022-10-31T10:35:08.674Z,2521.00
2022-10-31T10:36:08.733Z,2409.00
2022-10-31T10:37:08.742Z,2387.00
2022-10-31T10:38:08.609Z,2329.00
2022-10-31T10:39:08.573Z,2231.00
2022-10-31T10:40:08.562Z,2153.00
2022-10-31T10:41:08.558Z,2129.00
2022-10-31T10:42:08.705Z,2101.00
2022-10-31T10:43:08.527Z,2086.00
2022-10-31T10:44:08.533Z,2046.00
2022-10-31T10:45:08.523Z,2013.00
2022-10-31T10:46:11.622Z,2011.00
2022-10-31T10:47:08.505Z,2010.00
2022-10-31T10:48:08.470Z,2005.00
2022-10-31T10:49:08.492Z,2002.00
2022-10-31T10:50:08.450Z,2009.00
2022-10-31T10:51:16.036Z,1993.00
2022-10-31T10:53:08.449Z,1934.00
2022-10-31T10:54:10.554Z,1934.00
2022-10-31T10:55:08.400Z,1968.00
2022-10-31T10:56:08.378Z,2034.00
2022-10-31T10:57:08.392Z,2126.00
2022-10-31T10:58:08.356Z,2227.00
2022-10-31T10:59:08.365Z,2352.00
2022-10-31T11:00:08.363Z,2676.00
2022-10-31T11:01:08.588Z,3111.00
2022-10-31T11:02:08.327Z,3706.00
2022-10-31T11:03:08.334Z,4158.00
2022-10-31T11:04:08.301Z,4372.00
2022-10-31T11:05:08.290Z,4892.00
2022-10-31T11:06:08.293Z,4735.00
2022-10-31T11:07:08.275Z,4724.00
2022-10-31T11:08:08.266Z,5596.00
2022-10-31T11:09:08.252Z,4292.00
2022-10-31T11:10:08.303Z,7196.00
2022-10-31T11:11:08.239Z,7158.00
2022-10-31T11:12:08.224Z,8002.00
2022-10-31T11:13:08.224Z,9526.00
2022-10-31T11:14:08.202Z,7153.00
2022-10-31T11:15:09.694Z,6779.00
2022-10-31T11:16:08.163Z,9584.00
2022-10-31T11:17:08.173Z,10101.00
2022-10-31T11:18:08.156Z,7356.00
2022-10-31T11:19:08.142Z,7177.00
2022-10-31T11:20:08.133Z,6681.00
2022-10-31T11:21:08.168Z,6690.00
2022-10-31T11:22:08.115Z,6145.00
2022-10-31T11:23:08.277Z,5497.00
2022-10-31T11:24:08.069Z,5477.00
2022-10-31T11:25:08.074Z,5176.00
2022-10-31T11:26:08.074Z,5390.00
2022-10-31T11:27:08.055Z,4715.00
2022-10-31T11:28:08.067Z,4390.00
2022-10-31T11:29:08.034Z,4122.00
2022-10-31T11:30:10.987Z,3668.00
2022-10-31T11:31:08.003Z,3474.00
2022-10-31T11:32:08.010Z,3248.00
2022-10-31T11:33:07.993Z,2959.00
2022-10-31T11:34:09.525Z,2707.00
2022-10-31T11:35:08.063Z,2448.00
2022-10-31T11:36:07.945Z,2274.00
2022-10-31T11:37:07.944Z,2163.00
2022-10-31T11:38:09.144Z,2123.00
2022-10-31T11:39:07.961Z,2104.00
2022-10-31T11:40:09.657Z,2086.00
2022-10-31T11:41:07.912Z,2194.00
2022-10-31T11:42:10.515Z,2409.00
2022-10-31T11:43:07.987Z,2575.00
2022-10-31T11:44:08.118Z,2652.00
2022-10-31T11:45:10.013Z,2706.00
2022-10-31T11:46:07.910Z,2831.00
2022-10-31T11:47:08.720Z,3007.00
2022-10-31T11:48:29.124Z,3221.00
2022-10-31T11:49:08.498Z,3153.00
2022-10-31T11:50:09.163Z,3131.00
2022-10-31T11:51:07.968Z,3290.00
2022-10-31T11:52:07.826Z,3341.00
2022-10-31T11:53:07.765Z,3429.00
2022-10-31T11:54:07.804Z,3479.00
2022-10-31T11:55:08.913Z,3599.00
2022-10-31T11:56:07.880Z,3656.00
2022-10-31T11:57:07.786Z,3637.00
2022-10-31T11:58:07.726Z,3652.00
2022-10-31T11:59:10.549Z,3750.00
2022-10-31T12:00:07.718Z,3631.00
2022-10-31T12:01:07.873Z,3238.00
2022-10-31T12:02:07.961Z,5954.00
2022-10-31T12:03:11.534Z,4999.00
2022-10-31T12:04:07.912Z,4853.00
2022-10-31T12:05:08.752Z,4401.00
2022-10-31T12:06:14.735Z,4279.00
2022-10-31T12:07:07.743Z,4087.00
2022-10-31T12:08:07.644Z,4058.00
2022-10-31T12:09:07.603Z,3912.00
2022-10-31T12:10:07.611Z,3630.00
2022-10-31T12:11:08.755Z,3403.00
2022-10-31T12:12:07.573Z,3148.00
2022-10-31T12:13:08.517Z,2996.00
2022-10-31T12:14:07.609Z,2894.00
2022-10-31T12:15:08.833Z,2806.00
2022-10-31T12:16:07.563Z,2692.00
2022-10-31T12:17:07.530Z,2612.00
2022-10-31T12:18:07.511Z,2661.00
2022-10-31T12:19:07.498Z,2681.00
2022-10-31T12:20:07.510Z,2614.00
2022-10-31T12:21:07.483Z,2501.00
2022-10-31T12:22:08.126Z,2459.00
2022-10-31T12:23:07.461Z,2396.00
2022-10-31T12:24:08.429Z,2330.00
2022-10-31T12:25:07.616Z,2312.00
2022-10-31T12:26:07.599Z,2336.00
2022-10-31T12:27:07.529Z,2369.00
2022-10-31T12:28:07.430Z,2397.00
2022-10-31T12:29:07.470Z,2450.00
2022-10-31T12:30:07.390Z,2500.00
2022-10-31T12:31:07.620Z,2626.00
2022-10-31T12:32:07.423Z,2757.00
2022-10-31T12:33:09.197Z,3050.00
2022-10-31T12:34:07.370Z,3127.00
2022-10-31T12:35:07.389Z,3171.00
2022-10-31T12:36:09.717Z,3175.00
2022-10-31T12:37:09.768Z,3125.00
2022-10-31T12:38:07.459Z,2994.00
2022-10-31T12:39:07.387Z,2855.00
2022-10-31T12:40:10.014Z,2719.00
2022-10-31T12:41:07.310Z,2600.00
2022-10-31T12:42:07.327Z,2477.00
2022-10-31T12:43:07.325Z,2421.00
2022-10-31T12:44:07.274Z,2363.00
2022-10-31T12:45:07.244Z,2300.00
2022-10-31T12:46:07.235Z,2265.00
2022-10-31T12:47:07.290Z,2264.00
2022-10-31T12:48:07.219Z,2320.00